Elettra — H9AK — position and weather

sailwx.info

Track history (hours):
 
Tides and Currents Weather Stations Pressure Air Temp Water Temp Dewpoint Dewpoint Depression Visibility Wind Speed Wind Dir Waves Ship Positions

Elettra

Last reported at 2015-Mar-27 11:28 UTC. Time now 2015-Mar-27 11:56 UTC.
Position S 32°33' E 152°47'.

Length 254 m; draft 13.6 m.

Type: Ship. MMSI: 371188000.

Date/timePositionNaut miles runAvg speedWind from/ knotsBaromVisibWave heightAir tempDewpointWater temp
2015-Mar-27 11:28S 32°33' E 152°47'9 9.9
2015-Mar-27 10:34S 32°41' E 152°43'1010.0
2015-Mar-27 09:33S 32°46' E 152°33'10 9.8
2015-Mar-27 08:33S 32°51' E 152°23'1010.0
2015-Mar-27 07:34S 32°55' E 152°12'1110.6
2015-Mar-27 06:34S 32°57' E 151°60'9 9.1
2015-Mar-27 05:33S 32°55' E 151°49'3 3.3
2015-Mar-27 04:33S 32°53' E 151°46'0 0.1
2015-Mar-27 03:26S 32°53' E 151°46'0 0.0
2015-Mar-27 00:23S 32°53' E 151°46'0 0.0
2015-Mar-26 21:09S 32°53' E 151°46'0 0.0
2015-Mar-26 20:32S 32°53' E 151°46'0 0.0
2015-Mar-26 19:32S 32°53' E 151°46'0 0.0
2015-Mar-26 18:33S 32°53' E 151°46'0 0.0
2015-Mar-26 17:20S 32°53' E 151°46'0 0.0
2015-Mar-26 16:30S 32°53' E 151°46'0 0.0
2015-Mar-26 15:27S 32°53' E 151°46'0 0.0
2015-Mar-26 14:33S 32°53' E 151°46'0 0.0
2015-Mar-26 13:33S 32°53' E 151°46'0 0.0
2015-Mar-26 12:32S 32°53' E 151°46'0 0.0
2015-Mar-26 11:32S 32°53' E 151°46'0 0.0
2015-Mar-26 10:32S 32°53' E 151°46'0 0.0
2015-Mar-26 09:32S 32°53' E 151°46'0 0.0
2015-Mar-26 08:33S 32°53' E 151°46'0 0.0
2015-Mar-26 07:33S 32°53' E 151°46'0 0.0
2015-Mar-26 06:33S 32°53' E 151°46'0 0.0
2015-Mar-26 05:32S 32°53' E 151°46'0 0.0
2015-Mar-26 04:32S 32°53' E 151°46'1 0.7
2015-Mar-26 03:33S 32°54' E 151°46'6 5.6
2015-Mar-26 02:33S 32°57' E 151°51'7 6.5
2015-Mar-26 01:33S 33°03' E 151°55'7 7.1
2015-Mar-26 00:33S 33°09' E 151°59'7 6.9
2015-Mar-25 23:33S 33°09' E 152°07'3 3.1
2015-Mar-25 22:33S 33°10' E 152°11'1 0.6
2015-Mar-25 21:33S 33°09' E 152°11'1 0.7
2015-Mar-25 20:33S 33°09' E 152°12'2 2.3
2015-Mar-25 19:33S 33°07' E 152°11'10 9.5
2015-Mar-25 18:32S 32°59' E 152°04'1 1.2
2015-Mar-25 17:32S 32°60' E 152°04'1 1.0
2015-Mar-25 16:32S 33°01' E 152°05'1 1.0
2015-Mar-25 15:32S 33°02' E 152°05'1 1.1
2015-Mar-25 14:32S 33°03' E 152°05'1 1.1
2015-Mar-25 13:32S 33°04' E 152°06'1 1.2
2015-Mar-25 12:32S 33°05' E 152°06'1 1.3
2015-Mar-25 11:32S 33°06' E 152°06'2 1.6
2015-Mar-25 10:23S 33°08' E 152°05'2 1.7
2015-Mar-25 09:05S 33°10' E 152°05'1 1.8
2015-Mar-25 08:29S 33°11' E 152°04'2 1.7
2015-Mar-25 07:29S 33°13' E 152°03'2 1.6
2015-Mar-25 06:29S 33°14' E 152°02'2 1.5
2015-Mar-25 05:23S 33°15' E 152°01'1 1.4
2015-Mar-25 04:32S 33°16' E 151°60'9 0.4
2015-Mar-24 08:29S 33°25' E 152°01'7 2.2
2015-Mar-24 05:17S 33°21' E 152°07'2 2.5
2015-Mar-24 04:32S 33°19' E 152°09'3 2.7
2015-Mar-24 03:29S 33°17' E 152°11'3 2.7
2015-Mar-24 02:32S 33°15' E 152°13'2 2.3
2015-Mar-24 01:29S 33°13' E 152°15'2 2.2
2015-Mar-24 00:32S 33°11' E 152°16'2 2.2
2015-Mar-23 23:32S 33°10' E 152°17'2 1.8
2015-Mar-23 22:32S 33°08' E 152°18'2 1.6
2015-Mar-23 21:32S 33°06' E 152°19'1 1.3
2015-Mar-23 20:32S 33°05' E 152°19'1 1.4
2015-Mar-23 19:32S 33°04' E 152°19'2 1.7
2015-Mar-23 18:32S 33°02' E 152°18'2 1.7
2015-Mar-23 17:32S 33°00' E 152°18'2 1.5
2015-Mar-23 16:32S 32°59' E 152°18'2 1.8
2015-Mar-23 15:33S 32°57' E 152°17'9 9.1
2015-Mar-23 14:33S 32°50' E 152°24'1212.2
2015-Mar-23 13:33S 32°44' E 152°37'1211.7
2015-Mar-23 12:33S 32°36' E 152°46'1312.9
2015-Mar-23 11:32S 32°23' E 152°50'28512.9
2015-Mar-22 13:29S 27°45' E 154°04'11813.2
2015-Mar-22 04:32S 25°48' E 154°13'  
Track history (hours):
 
Tides and Currents Weather Stations Pressure Air Temp Water Temp Dewpoint Dewpoint Depression Visibility Wind Speed Wind Dir Waves Ship Positions

Elettra

Last reported at 2015-Mar-27 11:28 UTC. Time now 2015-Mar-27 11:56 UTC.
Position S 32°33' E 152°47'.

Length 254 m; draft 13.6 m.

Type: Ship. MMSI: 371188000.

Date/timePositionNaut miles runAvg speedWind from/ knotsBaromVisibWave heightAir tempDewpointWater temp
2015-Mar-27 11:28S 32°33' E 152°47'9 9.9
2015-Mar-27 10:34S 32°41' E 152°43'1010.0
2015-Mar-27 09:33S 32°46' E 152°33'10 9.8
2015-Mar-27 08:33S 32°51' E 152°23'1010.0
2015-Mar-27 07:34S 32°55' E 152°12'1110.6
2015-Mar-27 06:34S 32°57' E 151°60'9 9.1
2015-Mar-27 05:33S 32°55' E 151°49'3 3.3
2015-Mar-27 04:33S 32°53' E 151°46'0 0.1
2015-Mar-27 03:26S 32°53' E 151°46'0 0.0
2015-Mar-27 00:23S 32°53' E 151°46'0 0.0
2015-Mar-26 21:09S 32°53' E 151°46'0 0.0
2015-Mar-26 20:32S 32°53' E 151°46'0 0.0
2015-Mar-26 19:32S 32°53' E 151°46'0 0.0
2015-Mar-26 18:33S 32°53' E 151°46'0 0.0
2015-Mar-26 17:20S 32°53' E 151°46'0 0.0
2015-Mar-26 16:30S 32°53' E 151°46'0 0.0
2015-Mar-26 15:27S 32°53' E 151°46'0 0.0
2015-Mar-26 14:33S 32°53' E 151°46'0 0.0
2015-Mar-26 13:33S 32°53' E 151°46'0 0.0
2015-Mar-26 12:32S 32°53' E 151°46'0 0.0
2015-Mar-26 11:32S 32°53' E 151°46'0 0.0
2015-Mar-26 10:32S 32°53' E 151°46'0 0.0
2015-Mar-26 09:32S 32°53' E 151°46'0 0.0
2015-Mar-26 08:33S 32°53' E 151°46'0 0.0
2015-Mar-26 07:33S 32°53' E 151°46'0 0.0
2015-Mar-26 06:33S 32°53' E 151°46'0 0.0
2015-Mar-26 05:32S 32°53' E 151°46'0 0.0
2015-Mar-26 04:32S 32°53' E 151°46'1 0.7
2015-Mar-26 03:33S 32°54' E 151°46'6 5.6
2015-Mar-26 02:33S 32°57' E 151°51'7 6.5
2015-Mar-26 01:33S 33°03' E 151°55'7 7.1
2015-Mar-26 00:33S 33°09' E 151°59'7 6.9
2015-Mar-25 23:33S 33°09' E 152°07'3 3.1
2015-Mar-25 22:33S 33°10' E 152°11'1 0.6
2015-Mar-25 21:33S 33°09' E 152°11'1 0.7
2015-Mar-25 20:33S 33°09' E 152°12'2 2.3
2015-Mar-25 19:33S 33°07' E 152°11'10 9.5
2015-Mar-25 18:32S 32°59' E 152°04'1 1.2
2015-Mar-25 17:32S 32°60' E 152°04'1 1.0
2015-Mar-25 16:32S 33°01' E 152°05'1 1.0
2015-Mar-25 15:32S 33°02' E 152°05'1 1.1
2015-Mar-25 14:32S 33°03' E 152°05'1 1.1
2015-Mar-25 13:32S 33°04' E 152°06'1 1.2
2015-Mar-25 12:32S 33°05' E 152°06'1 1.3
2015-Mar-25 11:32S 33°06' E 152°06'2 1.6
2015-Mar-25 10:23S 33°08' E 152°05'2 1.7
2015-Mar-25 09:05S 33°10' E 152°05'1 1.8
2015-Mar-25 08:29S 33°11' E 152°04'2 1.7
2015-Mar-25 07:29S 33°13' E 152°03'2 1.6
2015-Mar-25 06:29S 33°14' E 152°02'2 1.5
2015-Mar-25 05:23S 33°15' E 152°01'1 1.4
2015-Mar-25 04:32S 33°16' E 151°60'9 0.4
2015-Mar-24 08:29S 33°25' E 152°01'7 2.2
2015-Mar-24 05:17S 33°21' E 152°07'2 2.5
2015-Mar-24 04:32S 33°19' E 152°09'3 2.7
2015-Mar-24 03:29S 33°17' E 152°11'3 2.7
2015-Mar-24 02:32S 33°15' E 152°13'2 2.3
2015-Mar-24 01:29S 33°13' E 152°15'2 2.2
2015-Mar-24 00:32S 33°11' E 152°16'2 2.2
2015-Mar-23 23:32S 33°10' E 152°17'2 1.8
2015-Mar-23 22:32S 33°08' E 152°18'2 1.6
2015-Mar-23 21:32S 33°06' E 152°19'1 1.3
2015-Mar-23 20:32S 33°05' E 152°19'1 1.4
2015-Mar-23 19:32S 33°04' E 152°19'2 1.7
2015-Mar-23 18:32S 33°02' E 152°18'2 1.7
2015-Mar-23 17:32S 33°00' E 152°18'2 1.5
2015-Mar-23 16:32S 32°59' E 152°18'2 1.8
2015-Mar-23 15:33S 32°57' E 152°17'9 9.1
2015-Mar-23 14:33S 32°50' E 152°24'1212.2
2015-Mar-23 13:33S 32°44' E 152°37'1211.7
2015-Mar-23 12:33S 32°36' E 152°46'1312.9
2015-Mar-23 11:32S 32°23' E 152°50'28512.9
2015-Mar-22 13:29S 27°45' E 154°04'11813.2
2015-Mar-22 04:32S 25°48' E 154°13'  

Dump ship's entire track history